createdAt,value
2019-04-14T00:01:41.889Z,1.60
2019-04-14T00:04:31.449Z,1.50
2019-04-14T00:07:01.538Z,1.60
2019-04-14T00:09:31.571Z,1.50
2019-04-14T00:12:04.187Z,1.50
2019-04-14T00:14:32.198Z,1.40
2019-04-14T00:17:02.131Z,1.50
2019-04-14T00:19:32.640Z,1.40
2019-04-14T00:22:03.273Z,1.40
2019-04-14T00:24:33.552Z,1.40
2019-04-14T00:27:04.144Z,1.30
2019-04-14T00:29:34.943Z,1.40
2019-04-14T00:32:05.402Z,1.40
2019-04-14T00:34:52.798Z,1.20
2019-04-14T00:37:34.239Z,1.30
2019-04-14T00:40:10.544Z,1.30
2019-04-14T00:42:56.207Z,1.20
2019-04-14T00:45:40.287Z,1.20
2019-04-14T00:48:11.767Z,1.10
2019-04-14T00:50:38.904Z,1.20
2019-04-14T00:53:08.281Z,1.20
2019-04-14T00:55:37.968Z,1.10
2019-04-14T00:58:08.145Z,1.00
2019-04-14T01:00:38.689Z,1.00
2019-04-14T01:03:09.067Z,1.10
2019-04-14T01:05:39.362Z,1.10
2019-04-14T01:08:09.664Z,1.10
2019-04-14T01:10:39.061Z,1.00
2019-04-14T01:13:11.023Z,1.00
2019-04-14T01:15:51.493Z,0.90
2019-04-14T01:18:10.509Z,0.90
2019-04-14T01:20:40.605Z,1.00
2019-04-14T01:23:10.608Z,0.90
2019-04-14T01:25:41.010Z,1.00
2019-04-14T01:28:11.326Z,0.90
2019-04-14T01:30:41.561Z,0.90
2019-04-14T01:33:11.920Z,0.90
2019-04-14T01:35:42.142Z,0.90
2019-04-14T01:38:12.547Z,0.90
2019-04-14T01:40:42.454Z,0.90
2019-04-14T01:43:12.373Z,1.00
2019-04-14T01:45:42.513Z,0.90
2019-04-14T01:48:12.710Z,0.90
2019-04-14T01:51:01.346Z,1.00
2019-04-14T01:53:40.069Z,1.00
2019-04-14T01:56:27.354Z,0.90
2019-04-14T01:58:57.936Z,1.00
2019-04-14T02:01:30.337Z,1.00
2019-04-14T02:04:00.637Z,1.00
2019-04-14T02:06:31.242Z,0.90
2019-04-14T02:09:01.311Z,1.00
2019-04-14T02:11:31.390Z,1.00
2019-04-14T02:14:01.607Z,1.00
2019-04-14T02:16:39.712Z,1.10
2019-04-14T02:19:02.438Z,1.00
2019-04-14T02:21:32.414Z,1.00
2019-04-14T02:24:02.534Z,1.00
2019-04-14T02:26:32.956Z,1.00
2019-04-14T02:29:03.500Z,1.00
2019-04-14T02:32:03.591Z,1.10
2019-04-14T02:34:34.709Z,1.10
2019-04-14T02:37:06.582Z,1.00
2019-04-14T02:42:32.604Z,1.00
2019-04-14T02:44:38.343Z,1.00
2019-04-14T02:47:27.119Z,1.10
2019-04-14T02:52:11.962Z,1.10
2019-04-14T02:54:53.834Z,1.10
2019-04-14T02:59:42.983Z,1.10
2019-04-14T03:02:30.399Z,1.10
2019-04-14T03:04:44.648Z,1.20
2019-04-14T03:07:25.945Z,1.10
2019-04-14T03:09:55.733Z,1.10
2019-04-14T03:12:16.837Z,1.10
2019-04-14T03:14:55.581Z,1.10
2019-04-14T03:17:33.391Z,1.20
2019-04-14T03:22:58.643Z,1.20
2019-04-14T03:25:34.032Z,1.20
2019-04-14T03:28:50.823Z,1.20
2019-04-14T03:34:08.262Z,1.00
2019-04-14T03:37:43.265Z,1.00
2019-04-14T03:38:53.294Z,1.10
2019-04-14T03:41:18.336Z,1.10
2019-04-14T03:43:38.205Z,1.10
2019-04-14T03:46:19.661Z,1.10
2019-04-14T03:51:17.450Z,1.10
2019-04-14T03:53:47.382Z,1.10
2019-04-14T03:56:29.178Z,1.00
2019-04-14T03:58:59.793Z,1.10
2019-04-14T04:01:30.215Z,1.10
2019-04-14T04:04:00.687Z,1.10
2019-04-14T04:06:31.258Z,1.10
2019-04-14T04:09:01.802Z,1.10
2019-04-14T04:11:32.201Z,1.10
2019-04-14T04:14:02.863Z,1.10
2019-04-14T04:16:51.446Z,1.30
2019-04-14T04:19:38.353Z,1.30
2019-04-14T04:22:21.544Z,1.30
2019-04-14T04:24:58.877Z,1.30
2019-04-14T04:27:56.901Z,1.20
2019-04-14T04:30:40.485Z,1.30
2019-04-14T04:33:15.552Z,1.20
2019-04-14T04:35:56.461Z,1.30
2019-04-14T04:38:44.879Z,1.40
2019-04-14T04:41:14.726Z,1.40
2019-04-14T04:43:45.127Z,1.40
2019-04-14T04:46:15.521Z,1.40
2019-04-14T04:48:58.326Z,1.40
2019-04-14T04:51:16.534Z,1.40
2019-04-14T04:53:46.187Z,1.50
2019-04-14T04:56:16.526Z,1.50
2019-04-14T04:58:45.967Z,1.50
2019-04-14T05:01:15.306Z,1.60
2019-04-14T05:03:44.966Z,1.60
2019-04-14T05:06:50.601Z,1.60
2019-04-14T05:09:29.642Z,1.70
2019-04-14T05:12:28.301Z,1.70
2019-04-14T05:15:33.334Z,1.80
2019-04-14T05:18:02.900Z,1.80
2019-04-14T05:20:33.393Z,1.80
2019-04-14T05:23:03.748Z,1.80
2019-04-14T05:25:34.131Z,1.80
2019-04-14T05:28:04.739Z,1.90
2019-04-14T05:30:35.008Z,2.00
2019-04-14T05:33:05.258Z,2.00
2019-04-14T05:35:35.745Z,2.10
2019-04-14T05:38:06.191Z,2.10
2019-04-14T05:40:36.411Z,2.20
2019-04-14T05:43:06.723Z,2.20
2019-04-14T05:45:37.259Z,2.30
2019-04-14T05:48:07.453Z,2.30
2019-04-14T05:50:37.930Z,2.40
2019-04-14T05:53:08.551Z,2.40
2019-04-14T05:55:38.139Z,2.50
2019-04-14T05:58:07.937Z,2.50
2019-04-14T06:00:38.926Z,2.50
2019-04-14T06:03:08.366Z,2.50
2019-04-14T06:05:38.271Z,2.70
2019-04-14T06:10:36.358Z,2.80
2019-04-14T06:13:05.677Z,2.90
2019-04-14T06:15:35.864Z,2.90
2019-04-14T06:20:35.111Z,3.10
2019-04-14T06:23:04.492Z,3.10
2019-04-14T06:25:36.260Z,3.10
2019-04-14T06:28:04.871Z,3.20
2019-04-14T06:30:53.139Z,3.30
2019-04-14T06:33:40.723Z,3.40
2019-04-14T06:36:34.794Z,3.50
2019-04-14T06:39:24.678Z,3.60
2019-04-14T06:41:54.032Z,3.60
2019-04-14T06:44:23.449Z,3.70
2019-04-14T06:46:52.858Z,3.80
2019-04-14T06:49:22.194Z,3.90
2019-04-14T06:51:51.513Z,4.10
2019-04-14T06:54:20.846Z,4.00
2019-04-14T06:56:50.242Z,4.20
2019-04-14T06:59:19.571Z,4.30
2019-04-14T07:01:48.904Z,4.30
2019-04-14T07:04:18.399Z,4.40
2019-04-14T07:06:47.734Z,4.50
2019-04-14T07:09:17.123Z,4.60
2019-04-14T07:11:46.470Z,4.70
2019-04-14T07:14:15.822Z,4.70
2019-04-14T07:16:45.247Z,4.80
2019-04-14T07:19:14.579Z,4.80
2019-04-14T07:21:43.930Z,5.00
2019-04-14T07:24:13.271Z,5.10
2019-04-14T07:26:42.766Z,5.20
2019-04-14T07:29:14.644Z,5.40
2019-04-14T07:32:05.270Z,5.40
2019-04-14T07:34:53.530Z,5.40
2019-04-14T07:37:40.591Z,5.60
2019-04-14T07:40:34.961Z,5.80
2019-04-14T07:43:29.059Z,5.70
2019-04-14T07:46:09.135Z,5.90
2019-04-14T07:49:00.472Z,6.00
2019-04-14T07:51:37.557Z,6.20
2019-04-14T07:54:14.419Z,6.40
2019-04-14T07:57:01.252Z,6.40
2019-04-14T07:59:34.283Z,6.40
2019-04-14T08:02:28.613Z,6.50
2019-04-14T08:05:04.082Z,6.50
2019-04-14T08:07:33.525Z,6.60
2019-04-14T08:10:02.864Z,6.70
2019-04-14T08:12:35.059Z,6.70
2019-04-14T08:15:03.362Z,6.90
2019-04-14T08:17:32.762Z,7.00
2019-04-14T08:20:02.085Z,7.20
2019-04-14T08:22:31.413Z,7.20
2019-04-14T08:25:00.815Z,7.30
2019-04-14T08:27:30.210Z,7.30
2019-04-14T08:30:00.517Z,7.20
2019-04-14T08:32:29.847Z,7.40
2019-04-14T08:34:59.243Z,7.60
2019-04-14T08:37:28.573Z,7.70
2019-04-14T08:39:57.907Z,7.80
2019-04-14T08:42:36.809Z,7.90
2019-04-14T08:45:18.446Z,8.00
2019-04-14T08:48:10.971Z,8.10
2019-04-14T08:50:47.998Z,8.20
2019-04-14T08:53:22.608Z,8.10
2019-04-14T08:56:16.718Z,8.10
2019-04-14T08:59:02.269Z,8.10
2019-04-14T09:01:53.411Z,8.00
2019-04-14T09:04:50.843Z,8.20
2019-04-14T09:07:29.619Z,8.20
2019-04-14T09:10:11.812Z,8.10
2019-04-14T09:12:42.070Z,8.20
2019-04-14T09:15:11.402Z,8.20
2019-04-14T09:17:40.738Z,8.30
2019-04-14T09:20:10.150Z,8.20
2019-04-14T09:22:39.480Z,8.20
2019-04-14T09:25:08.874Z,8.20
2019-04-14T09:27:38.191Z,8.20
2019-04-14T09:30:08.190Z,8.20
2019-04-14T09:32:37.630Z,8.20
2019-04-14T09:35:07.480Z,8.00
2019-04-14T09:37:36.845Z,7.90
2019-04-14T09:40:06.367Z,7.80
2019-04-14T09:42:35.774Z,7.80
2019-04-14T09:45:06.367Z,7.80
2019-04-14T09:47:35.947Z,7.70
2019-04-14T09:50:07.297Z,7.70
2019-04-14T09:52:36.878Z,7.60
2019-04-14T09:55:06.807Z,7.40
2019-04-14T09:57:36.204Z,7.40
2019-04-14T10:00:07.351Z,7.30
2019-04-14T10:02:36.671Z,7.30
2019-04-14T10:05:06.718Z,7.20
2019-04-14T10:07:36.137Z,7.30
2019-04-14T10:10:06.333Z,7.20
2019-04-14T10:12:35.752Z,7.20
2019-04-14T10:15:06.685Z,7.20
2019-04-14T10:17:36.091Z,7.20
2019-04-14T10:20:05.580Z,7.20
2019-04-14T10:22:34.984Z,7.20
2019-04-14T10:25:04.850Z,7.10
2019-04-14T10:27:34.462Z,7.20
2019-04-14T10:30:04.258Z,7.20
2019-04-14T10:32:33.663Z,7.20
2019-04-14T10:35:02.994Z,7.30
2019-04-14T10:37:32.350Z,7.30
2019-04-14T10:40:01.711Z,7.30
2019-04-14T10:42:31.126Z,7.40
2019-04-14T10:45:00.507Z,7.50
2019-04-14T10:47:29.927Z,7.50
2019-04-14T10:49:59.283Z,7.40
2019-04-14T10:52:28.629Z,7.40
2019-04-14T10:54:58.030Z,7.40
2019-04-14T10:57:27.431Z,7.60
2019-04-14T10:59:56.767Z,7.50
2019-04-14T11:02:26.181Z,7.50
2019-04-14T11:04:55.608Z,7.70
2019-04-14T11:07:28.044Z,7.60
2019-04-14T11:09:57.399Z,7.70
2019-04-14T11:12:26.718Z,7.90
2019-04-14T11:14:56.046Z,8.00
2019-04-14T11:17:25.395Z,8.10
2019-04-14T11:19:54.742Z,8.20
2019-04-14T11:22:24.066Z,8.20
2019-04-14T11:24:53.468Z,8.30
2019-04-14T11:27:23.997Z,8.40
2019-04-14T11:29:54.138Z,8.40
2019-04-14T11:33:00.462Z,8.50
2019-04-14T11:35:39.615Z,8.50
2019-04-14T11:38:26.203Z,8.70
2019-04-14T11:41:00.629Z,8.70
2019-04-14T11:43:30.011Z,8.80
2019-04-14T11:45:59.347Z,8.70
2019-04-14T11:48:28.675Z,8.60
2019-04-14T11:50:58.006Z,8.40
2019-04-14T11:53:27.367Z,8.60
2019-04-14T11:55:56.742Z,8.50
2019-04-14T11:58:28.950Z,8.50
2019-04-14T12:01:18.951Z,8.70
2019-04-14T12:04:21.933Z,8.70
2019-04-14T12:07:08.802Z,8.60
2019-04-14T12:09:44.210Z,8.60
2019-04-14T12:12:13.604Z,8.70
2019-04-14T12:14:42.943Z,8.80
2019-04-14T12:17:12.272Z,8.80
2019-04-14T12:19:41.714Z,8.60
2019-04-14T12:22:11.055Z,8.60
2019-04-14T12:24:40.411Z,8.60
2019-04-14T12:27:10.019Z,8.70
2019-04-14T12:29:39.371Z,8.60
2019-04-14T12:32:08.800Z,8.70
2019-04-14T12:34:38.176Z,8.70
2019-04-14T12:37:07.783Z,8.60
2019-04-14T12:39:37.315Z,8.40
2019-04-14T12:42:28.723Z,8.60
2019-04-14T12:45:10.311Z,8.60
2019-04-14T12:48:01.351Z,8.70
2019-04-14T12:50:40.390Z,8.60
2019-04-14T12:53:09.746Z,9.00
2019-04-14T12:55:39.071Z,9.00
2019-04-14T12:58:11.148Z,9.00
2019-04-14T13:00:43.134Z,9.00
2019-04-14T13:03:12.479Z,9.10
2019-04-14T13:05:41.846Z,9.10
2019-04-14T13:08:11.247Z,9.10
2019-04-14T13:10:40.850Z,9.30
2019-04-14T13:13:10.199Z,9.30
2019-04-14T13:15:39.627Z,9.20
2019-04-14T13:18:08.979Z,9.40
2019-04-14T13:20:38.349Z,9.30
2019-04-14T13:23:07.764Z,9.40
2019-04-14T13:25:37.107Z,9.30
2019-04-14T13:28:06.456Z,9.30
2019-04-14T13:30:38.639Z,9.50
2019-04-14T13:33:07.973Z,9.50
2019-04-14T13:35:37.367Z,9.70
2019-04-14T13:38:06.771Z,9.60
2019-04-14T13:40:36.099Z,9.70
2019-04-14T13:43:05.435Z,9.80
2019-04-14T13:45:34.755Z,9.80
2019-04-14T13:48:04.079Z,9.70
2019-04-14T13:50:33.404Z,9.50
2019-04-14T13:53:02.826Z,9.50
2019-04-14T13:55:32.162Z,9.40
2019-04-14T13:58:01.520Z,9.50
2019-04-14T14:00:30.840Z,9.50
2019-04-14T14:03:00.184Z,9.60
2019-04-14T14:05:29.525Z,9.50
2019-04-14T14:07:58.851Z,9.60
2019-04-14T14:10:28.968Z,9.50
2019-04-14T14:13:05.736Z,9.50
2019-04-14T14:15:58.844Z,9.70
2019-04-14T14:18:45.856Z,10.40
2019-04-14T14:21:27.587Z,10.80
2019-04-14T14:24:14.431Z,10.60
2019-04-14T14:26:44.470Z,10.30
2019-04-14T14:29:13.891Z,10.10
2019-04-14T14:31:43.345Z,10.20
2019-04-14T14:34:12.679Z,10.40
2019-04-14T14:36:42.022Z,12.20
2019-04-14T14:39:11.388Z,12.30
2019-04-14T14:41:40.760Z,12.60
2019-04-14T14:44:10.189Z,12.50
2019-04-14T14:46:49.288Z,12.20
2019-04-14T14:49:25.791Z,11.90
2019-04-14T14:51:59.414Z,11.40
2019-04-14T14:54:28.784Z,11.20
2019-04-14T14:56:58.171Z,11.10
2019-04-14T14:59:27.518Z,10.90
2019-04-14T15:01:57.374Z,11.20
2019-04-14T15:04:26.731Z,12.70
2019-04-14T15:06:56.074Z,13.60
2019-04-14T15:09:25.446Z,13.90
2019-04-14T15:11:54.885Z,14.50
2019-04-14T15:14:24.240Z,14.70
2019-04-14T15:16:53.891Z,14.40
2019-04-14T15:19:23.519Z,13.30
2019-04-14T15:21:52.988Z,13.30
2019-04-14T15:24:22.419Z,13.10
2019-04-14T15:26:51.781Z,12.60
2019-04-14T15:29:21.388Z,12.00
2019-04-14T15:31:50.816Z,11.80
2019-04-14T15:34:20.252Z,11.40
2019-04-14T15:36:49.614Z,10.90
2019-04-14T15:39:18.955Z,10.50
2019-04-14T15:41:48.405Z,10.50
2019-04-14T15:44:17.744Z,10.10
2019-04-14T15:46:47.553Z,10.00
2019-04-14T15:49:16.923Z,10.20
2019-04-14T15:51:46.273Z,10.60
2019-04-14T15:54:15.609Z,10.70
2019-04-14T15:57:03.898Z,10.60
2019-04-14T15:59:58.273Z,10.80
2019-04-14T16:02:36.431Z,10.40
2019-04-14T16:05:28.302Z,10.30
2019-04-14T16:08:02.562Z,10.00
2019-04-14T16:10:42.718Z,9.80
2019-04-14T16:13:20.634Z,9.60
2019-04-14T16:15:55.255Z,9.70
2019-04-14T16:18:49.691Z,9.40
2019-04-14T16:21:19.094Z,9.20
2019-04-14T16:23:50.748Z,9.10
2019-04-14T16:26:30.827Z,9.00
2019-04-14T16:29:09.352Z,9.10
2019-04-14T16:31:48.402Z,9.00
2019-04-14T16:34:39.530Z,8.90
2019-04-14T16:37:08.883Z,8.70
2019-04-14T16:39:38.444Z,8.40
2019-04-14T16:42:07.859Z,8.30
2019-04-14T16:44:37.275Z,8.20
2019-04-14T16:47:06.632Z,8.10
2019-04-14T16:49:36.255Z,7.90
2019-04-14T16:52:31.542Z,7.90
2019-04-14T16:55:25.887Z,7.80
2019-04-14T16:58:19.979Z,7.70
2019-04-14T17:00:53.734Z,7.80
2019-04-14T17:03:23.096Z,7.90
2019-04-14T17:05:52.508Z,7.70
2019-04-14T17:08:21.878Z,7.50
2019-04-14T17:10:51.272Z,7.50
2019-04-14T17:13:21.202Z,7.50
2019-04-14T17:16:15.467Z,7.70
2019-04-14T17:18:55.031Z,8.10
2019-04-14T17:22:01.434Z,8.10
2019-04-14T17:25:00.675Z,8.10
2019-04-14T17:27:47.088Z,8.30
2019-04-14T17:30:30.563Z,8.10
2019-04-14T17:33:17.273Z,7.60
2019-04-14T17:36:05.180Z,7.30
2019-04-14T17:38:56.149Z,7.10
2019-04-14T17:41:34.367Z,6.70
2019-04-14T17:44:28.599Z,6.60
2019-04-14T17:47:16.935Z,6.50
2019-04-14T17:49:55.778Z,6.30
2019-04-14T17:52:32.722Z,6.20
2019-04-14T17:55:21.100Z,6.00
2019-04-14T17:57:57.419Z,6.00
2019-04-14T18:00:51.979Z,5.80
2019-04-14T18:03:42.436Z,5.80
2019-04-14T18:06:30.947Z,5.60
2019-04-14T18:09:22.252Z,5.50
2019-04-14T18:12:06.286Z,5.50
2019-04-14T18:14:51.166Z,5.40
2019-04-14T18:17:46.166Z,5.40
2019-04-14T18:20:34.516Z,5.30
2019-04-14T18:23:04.114Z,5.30
2019-04-14T18:25:33.753Z,5.20
2019-04-14T18:28:20.948Z,5.20
2019-04-14T18:30:58.841Z,5.10
2019-04-14T18:33:33.866Z,4.90
2019-04-14T18:36:19.214Z,4.60
2019-04-14T18:41:59.115Z,4.50
2019-04-14T18:44:50.216Z,4.30
2019-04-14T18:47:44.575Z,4.30
2019-04-14T18:50:38.470Z,4.10
2019-04-14T18:53:14.970Z,4.00
2019-04-14T18:56:12.091Z,4.00
2019-04-14T18:58:47.782Z,3.90
2019-04-14T19:01:19.566Z,3.80
2019-04-14T19:03:48.915Z,3.80
2019-04-14T19:06:18.279Z,3.70
2019-04-14T19:08:47.659Z,3.70
2019-04-14T19:11:35.945Z,3.60
2019-04-14T19:14:05.994Z,3.40
2019-04-14T19:16:41.775Z,3.40
2019-04-14T19:19:11.184Z,3.30
2019-04-14T19:21:40.512Z,3.30
2019-04-14T19:24:09.874Z,3.20
2019-04-14T19:26:39.231Z,3.20
2019-04-14T19:29:08.615Z,3.00
2019-04-14T19:31:37.944Z,3.00
2019-04-14T19:34:07.295Z,3.00
2019-04-14T19:36:36.636Z,2.90
2019-04-14T19:39:09.641Z,2.90
2019-04-14T19:41:39.167Z,2.80
2019-04-14T19:44:08.509Z,2.80
2019-04-14T19:46:37.834Z,2.80
2019-04-14T19:49:07.241Z,2.60
2019-04-14T19:51:36.587Z,2.50
2019-04-14T19:54:05.920Z,2.50
2019-04-14T19:56:35.295Z,2.40
2019-04-14T19:59:04.627Z,2.40
2019-04-14T20:01:33.958Z,2.30
2019-04-14T20:04:03.377Z,2.20
2019-04-14T20:06:32.783Z,2.20
2019-04-14T20:09:02.194Z,2.00
2019-04-14T20:11:31.584Z,2.00
2019-04-14T20:14:00.912Z,2.00
2019-04-14T20:16:58.235Z,1.90
2019-04-14T20:19:49.283Z,1.90
2019-04-14T20:22:46.376Z,1.90
2019-04-14T20:25:37.606Z,1.90
2019-04-14T20:28:12.034Z,1.90
2019-04-14T20:30:54.602Z,1.80
2019-04-14T20:33:23.983Z,1.80
2019-04-14T20:35:53.321Z,1.80
2019-04-14T20:38:22.715Z,1.80
2019-04-14T20:40:52.140Z,1.80
2019-04-14T20:43:21.536Z,1.80
2019-04-14T20:45:50.867Z,1.80
2019-04-14T20:48:20.196Z,1.70
2019-04-14T20:50:49.523Z,1.70
2019-04-14T20:53:18.915Z,1.70
2019-04-14T20:55:48.322Z,1.70
2019-04-14T20:58:17.723Z,1.60
2019-04-14T21:00:47.059Z,1.40
2019-04-14T21:03:38.354Z,1.30
2019-04-14T21:06:35.639Z,1.30
2019-04-14T21:09:12.618Z,1.30
2019-04-14T21:12:00.874Z,1.30
2019-04-14T21:14:49.146Z,1.30
2019-04-14T21:17:30.862Z,1.20
2019-04-14T21:20:19.118Z,1.00
2019-04-14T21:22:58.489Z,1.10
2019-04-14T21:25:39.374Z,1.10
2019-04-14T21:28:20.723Z,1.00
2019-04-14T21:31:07.707Z,1.00
2019-04-14T21:34:05.157Z,0.90
2019-04-14T21:36:53.486Z,1.00
2019-04-14T21:39:40.749Z,0.90
2019-04-14T21:42:10.258Z,0.90
2019-04-14T21:44:39.591Z,0.80
2019-04-14T21:47:08.931Z,0.80
2019-04-14T21:49:38.260Z,0.70
2019-04-14T21:52:25.187Z,0.70
2019-04-14T21:54:54.591Z,0.70
2019-04-14T21:57:51.904Z,0.70
2019-04-14T22:01:16.816Z,0.60
2019-04-14T22:04:08.494Z,0.40
2019-04-14T22:06:40.080Z,0.60
2019-04-14T22:09:15.675Z,0.40
2019-04-14T22:11:45.082Z,0.50
2019-04-14T22:14:14.495Z,0.40
2019-04-14T22:16:43.850Z,0.50
2019-04-14T22:19:13.175Z,0.40
2019-04-14T22:21:42.515Z,0.40
2019-04-14T22:24:11.880Z,0.40
2019-04-14T22:26:41.350Z,0.40
2019-04-14T22:29:10.787Z,0.40
2019-04-14T22:31:40.189Z,0.30
2019-04-14T22:34:09.555Z,0.30
2019-04-14T22:36:38.876Z,0.40
2019-04-14T22:39:09.991Z,0.30
2019-04-14T22:41:39.328Z,0.40
2019-04-14T22:44:08.677Z,0.40
2019-04-14T22:46:38.006Z,0.20
2019-04-14T22:49:07.356Z,0.20
2019-04-14T22:51:36.806Z,0.20
2019-04-14T22:54:06.173Z,0.20
2019-04-14T22:56:39.439Z,0.30
2019-04-14T22:59:06.679Z,0.20
2019-04-14T23:01:38.106Z,0.20
2019-04-14T23:04:32.410Z,0.10
2019-04-14T23:07:36.030Z,0.10
2019-04-14T23:10:24.640Z,0.20
2019-04-14T23:13:11.527Z,0.20
2019-04-14T23:16:00.099Z,0.10
2019-04-14T23:18:34.267Z,0.00
2019-04-14T23:21:28.378Z,0.00
2019-04-14T23:24:15.647Z,0.10
2019-04-14T23:26:52.384Z,-0.10
2019-04-14T23:29:16.127Z,0.00
2019-04-14T23:31:45.461Z,0.00
2019-04-14T23:34:14.862Z,0.00
2019-04-14T23:36:44.214Z,0.00
2019-04-14T23:39:13.539Z,-0.10
2019-04-14T23:41:42.875Z,0.00
2019-04-14T23:44:12.215Z,-0.10
2019-04-14T23:46:41.619Z,-0.20
2019-04-14T23:49:10.979Z,-0.20
2019-04-14T23:51:40.319Z,-0.10
2019-04-14T23:54:09.799Z,-0.20
2019-04-14T23:56:39.137Z,-0.30
2019-04-14T23:59:08.552Z,-0.40
